Schneifelwetter: Wetterstation Hallschlag, 537 m . NN
Wetterdaten: Samstag, 29.09.2012
Datum Zeit Temp. A. Feuchte A. Luftdruck Regen Wind Richtung Richtung Sonnenschein T Regen Taupunkt Windchill
29.09.2012 00:08 8,4 C 95 % 1015 hPa 0,0 l/m 17,3 km/h (3 Bft) W-SW22.5 250 0 min 0 min 7,6 C 2,2 C
29.09.2012 00:23 8,4 C 95 % 1015 hPa 0,0 l/m 20,0 km/h (4 Bft) W-SW45 245 0 min 0 min 7,6 C 1,2 C
29.09.2012 00:38 8,4 C 95 % 1015 hPa 0,0 l/m 21,6 km/h (4 Bft) W-SW22.5 250 0 min 0 min 7,6 C 0,7 C
29.09.2012 00:53 8,3 C 94 % 1014 hPa 0,0 l/m 22,2 km/h (4 Bft) W-SW22.5 250 0 min 0 min 7,4 C 0,4 C
29.09.2012 01:09 8,1 C 94 % 1014 hPa 0,0 l/m 19,6 km/h (3 Bft) W-SW22.5 250 0 min 0 min 7,2 C 1,0 C
29.09.2012 01:24 7,9 C 95 % 1014 hPa 0,0 l/m 16,3 km/h (3 Bft) W-SW22.5 250 0 min 0 min 7,1 C 2,0 C
29.09.2012 01:39 7,8 C 95 % 1014 hPa 0,0 l/m 19,7 km/h (3 Bft) W22.5 260 0 min 0 min 7,0 C 0,6 C
29.09.2012 01:54 7,7 C 95 % 1014 hPa 0,0 l/m 24,8 km/h (4 Bft) W-SW45 255 0 min 0 min 7,0 C -1,2 C
29.09.2012 02:09 7,8 C 95 % 1014 hPa 0,0 l/m 21,6 km/h (4 Bft) W-SW45 245 0 min 0 min 7,0 C -0,1 C
29.09.2012 02:24 7,7 C 95 % 1014 hPa 0,0 l/m 20,1 km/h (4 Bft) W-SW22.5 245 0 min 0 min 7,0 C 0,3 C
29.09.2012 02:39 7,6 C 95 % 1014 hPa 0,0 l/m 17,6 km/h (3 Bft) W-SW22.5 250 0 min 0 min 6,9 C 1,1 C
29.09.2012 02:54 7,4 C 95 % 1014 hPa 0,0 l/m 18,6 km/h (3 Bft) W-SW22.5 250 0 min 0 min 6,7 C 0,5 C
29.09.2012 03:09 7,4 C 96 % 1014 hPa 0,0 l/m 20,7 km/h (4 Bft) W-SW45 240 0 min 0 min 6,8 C -0,3 C
29.09.2012 03:24 7,3 C 95 % 1014 hPa 0,0 l/m 23,3 km/h (4 Bft) W45 260 0 min 0 min 6,6 C -1,3 C
29.09.2012 03:39 7,1 C 95 % 1014 hPa 0,0 l/m 16,4 km/h (3 Bft) W22.5 260 0 min 0 min 6,4 C 1,0 C
29.09.2012 03:54 6,8 C 96 % 1014 hPa 0,0 l/m 20,4 km/h (4 Bft) W22.5 260 0 min 0 min 6,2 C -1,0 C
29.09.2012 04:09 6,6 C 96 % 1014 hPa 0,0 l/m 17,9 km/h (3 Bft) W-SW22.5 255 0 min 0 min 6,0 C -0,3 C
29.09.2012 04:24 6,4 C 95 % 1014 hPa 0,0 l/m 14,6 km/h (3 Bft) W-SW22.5 250 0 min 0 min 5,7 C 1,0 C
29.09.2012 04:39 6,3 C 96 % 1014 hPa 0,0 l/m 16,2 km/h (3 Bft) W-SW22.5 250 0 min 0 min 5,7 C 0,1 C
29.09.2012 04:54 6,1 C 96 % 1014 hPa 0,0 l/m 13,6 km/h (3 Bft) W22.5 260 0 min 0 min 5,5 C 1,1 C
29.09.2012 05:09 6,0 C 96 % 1014 hPa 0,0 l/m 16,6 km/h (3 Bft) W-SW22.5 255 0 min 0 min 5,4 C -0,5 C
29.09.2012 05:24 6,0 C 96 % 1014 hPa 0,0 l/m 13,4 km/h (3 Bft) W-SW22.5 255 0 min 0 min 5,4 C 1,1 C
29.09.2012 05:39 6,0 C 96 % 1014 hPa 0,0 l/m 17,2 km/h (3 Bft) W-SW45 255 0 min 0 min 5,4 C -0,7 C
29.09.2012 05:54 5,9 C 96 % 1014 hPa 0,0 l/m 16,8 km/h (3 Bft) W45 260 0 min 0 min 5,3 C -0,7 C
29.09.2012 06:09 5,9 C 96 % 1014 hPa 0,0 l/m 17,1 km/h (3 Bft) W-SW22.5 255 0 min 0 min 5,3 C -0,8 C
29.09.2012 06:24 5,9 C 97 % 1014 hPa 0,0 l/m 17,2 km/h (3 Bft) W-SW45 250 0 min 0 min 5,5 C -0,9 C
29.09.2012 06:39 6,1 C 97 % 1014 hPa 0,0 l/m 13,3 km/h (3 Bft) W-SW22.5 255 0 min 0 min 5,7 C 1,3 C
29.09.2012 06:54 6,4 C 97 % 1014 hPa 0,0 l/m 11,5 km/h (2 Bft) W-SW22.5 255 0 min 0 min 6,0 C 2,7 C
29.09.2012 07:09 6,4 C 97 % 1014 hPa 0,0 l/m 11,1 km/h (2 Bft) W22.5 265 0 min 0 min 6,0 C 2,9 C
29.09.2012 07:24 6,6 C 97 % 1014 hPa 0,0 l/m 9,4 km/h (2 Bft) W 265 0 min 0 min 6,2 C 4,2 C
29.09.2012 07:39 6,7 C 97 % 1014 hPa 0,0 l/m 13,3 km/h (3 Bft) W-SW22.5 250 0 min 0 min 6,3 C 2,0 C
29.09.2012 07:59 6,8 C 97 % 1014 hPa 0,0 l/m 11,1 km/h (2 Bft) W-SW22.5 250 0 min 0 min 6,4 C 3,4 C
29.09.2012 08:14 7,0 C 97 % 1014 hPa 0,0 l/m 13,0 km/h (3 Bft) W-SW22.5 250 0 min 0 min 6,6 C 2,5 C
29.09.2012 08:29 7,2 C 97 % 1014 hPa 0,0 l/m 7,8 km/h (2 Bft) W-SW 245 0 min 0 min 6,8 C 6,1 C
29.09.2012 08:45 7,5 C 97 % 1014 hPa 0,0 l/m 12,6 km/h (3 Bft) W-SW22.5 255 0 min 0 min 7,1 C 3,3 C
29.09.2012 08:59 7,9 C 97 % 1015 hPa 0,0 l/m 16,9 km/h (3 Bft) W-SW22.5 250 0 min 0 min 7,5 C 1,8 C
29.09.2012 09:14 8,2 C 97 % 1015 hPa 0,0 l/m 17,0 km/h (3 Bft) W22.5 260 0 min 0 min 7,8 C 2,1 C
29.09.2012 09:29 8,3 C 96 % 1015 hPa 0,0 l/m 14,8 km/h (3 Bft) W-SW22.5 250 0 min 0 min 7,7 C 3,2 C
29.09.2012 09:44 8,4 C 96 % 1015 hPa 0,0 l/m 15,6 km/h (3 Bft) W-SW22.5 255 0 min 0 min 7,8 C 2,9 C
29.09.2012 10:00 8,7 C 96 % 1015 hPa 0,0 l/m 16,6 km/h (3 Bft) W-SW22.5 240 0 min 0 min 8,1 C 2,9 C
29.09.2012 10:15 9,0 C 96 % 1015 hPa 0,0 l/m 17,2 km/h (3 Bft) W-SW45 250 0 min 0 min 8,4 C 3,0 C
29.09.2012 10:29 9,5 C 95 % 1015 hPa 0,0 l/m 21,1 km/h (4 Bft) W22.5 260 0 min 0 min 8,7 C 2,3 C
29.09.2012 10:44 9,5 C 95 % 1015 hPa 0,0 l/m 16,6 km/h (3 Bft) W-SW45 240 0 min 0 min 8,7 C 3,9 C
29.09.2012 10:59 9,6 C 94 % 1015 hPa 0,0 l/m 17,3 km/h (3 Bft) W22.5 260 0 min 0 min 8,7 C 3,7 C
29.09.2012 11:14 9,8 C 93 % 1015 hPa 0,0 l/m 14,5 km/h (3 Bft) W22.5 260 0 min 0 min 8,7 C 5,1 C
29.09.2012 11:30 10,7 C 93 % 1015 hPa 0,0 l/m 16,6 km/h (3 Bft) W22.5 260 0 min 0 min 9,6 C 5,4 C
29.09.2012 11:45 11,9 C 89 % 1015 hPa 0,0 l/m 20,6 km/h (4 Bft) W22.5 260 0 min 0 min 10,1 C 5,6 C
29.09.2012 11:59 12,3 C 87 % 1015 hPa 0,0 l/m 18,8 km/h (3 Bft) W-SW45 250 0 min 0 min 10,2 C 6,6 C
29.09.2012 12:14 12,8 C 85 % 1015 hPa 0,0 l/m 20,1 km/h (4 Bft) W22.5 265 0 min 0 min 10,3 C 6,9 C
29.09.2012 12:29 12,7 C 82 % 1015 hPa 0,0 l/m 18,7 km/h (3 Bft) W45 270 0 min 0 min 9,7 C 7,2 C
29.09.2012 12:44 12,6 C 81 % 1015 hPa 0,0 l/m 22,1 km/h (4 Bft) W45 265 0 min 0 min 9,4 C 6,1 C
29.09.2012 13:00 12,9 C 80 % 1016 hPa 0,0 l/m 21,5 km/h (4 Bft) W-SW22.5 255 0 min 0 min 9,5 C 6,6 C
29.09.2012 13:15 13,2 C 76 % 1016 hPa 0,0 l/m 18,5 km/h (3 Bft) W22.5 260 0 min 0 min 9,1 C 7,9 C
29.09.2012 13:29 12,9 C 76 % 1016 hPa 0,0 l/m 20,0 km/h (4 Bft) W45 260 0 min 0 min 8,8 C 7,0 C
29.09.2012 13:44 13,3 C 72 % 1015 hPa 0,0 l/m 18,3 km/h (3 Bft) W-SW22.5 250 0 min 0 min 8,4 C 8,0 C
29.09.2012 13:59 13,8 C 71 % 1015 hPa 0,0 l/m 20,7 km/h (4 Bft) W-SW67.5 250 0 min 0 min 8,6 C 8,0 C
29.09.2012 14:14 13,2 C 70 % 1015 hPa 0,0 l/m 18,3 km/h (3 Bft) W45 270 0 min 0 min 7,9 C 7,9 C
29.09.2012 14:30 12,5 C 70 % 1015 hPa 0,0 l/m 17,5 km/h (3 Bft) W22.5 270 0 min 0 min 7,2 C 7,3 C
29.09.2012 14:45 11,9 C 72 % 1016 hPa 0,0 l/m 13,9 km/h (3 Bft) W 265 0 min 0 min 7,0 C 7,9 C
29.09.2012 15:00 11,7 C 74 % 1016 hPa 0,0 l/m 18,0 km/h (3 Bft) W22.5 265 0 min 0 min 7,2 C 6,1 C
29.09.2012 15:14 11,7 C 74 % 1016 hPa 0,0 l/m 19,0 km/h (3 Bft) W-SW22.5 255 0 min 0 min 7,2 C 5,8 C
29.09.2012 15:29 12,1 C 75 % 1016 hPa 0,0 l/m 16,0 km/h (3 Bft) W22.5 265 0 min 0 min 7,8 C 7,3 C
29.09.2012 15:44 12,6 C 74 % 1016 hPa 0,0 l/m 18,3 km/h (3 Bft) W22.5 260 0 min 0 min 8,1 C 7,2 C
29.09.2012 15:59 13,0 C 73 % 1016 hPa 0,0 l/m 16,9 km/h (3 Bft) W-SW22.5 245 0 min 0 min 8,3 C 8,1 C
29.09.2012 16:15 12,9 C 73 % 1016 hPa 0,0 l/m 17,3 km/h (3 Bft) W22.5 260 0 min 0 min 8,2 C 7,9 C
29.09.2012 16:30 13,0 C 71 % 1015 hPa 0,0 l/m 27,3 km/h (4 Bft) W45 260 0 min 0 min 7,9 C 5,4 C
29.09.2012 16:44 13,1 C 69 % 1016 hPa 0,0 l/m 18,2 km/h (3 Bft) W22.5 270 0 min 0 min 7,5 C 7,8 C
29.09.2012 16:59 14,0 C 69 % 1016 hPa 0,0 l/m 27,6 km/h (4 Bft) W67.5 260 0 min 0 min 8,4 C 6,7 C
29.09.2012 17:14 13,3 C 68 % 1016 hPa 0,0 l/m 24,8 km/h (4 Bft) W45 270 0 min 0 min 7,5 C 6,3 C
29.09.2012 17:29 12,4 C 70 % 1016 hPa 0,0 l/m 19,8 km/h (3 Bft) W22.5 270 0 min 0 min 7,1 C 6,4 C
29.09.2012 17:45 12,3 C 71 % 1016 hPa 0,0 l/m 19,1 km/h (3 Bft) W-NW45 295 0 min 0 min 7,2 C 6,5 C
29.09.2012 18:00 12,4 C 69 % 1016 hPa 0,0 l/m 16,5 km/h (3 Bft) W 270 0 min 0 min 6,9 C 7,5 C
29.09.2012 18:14 12,3 C 70 % 1016 hPa 0,0 l/m 16,8 km/h (3 Bft) W22.5 270 0 min 0 min 7,0 C 7,3 C
29.09.2012 18:29 11,9 C 72 % 1016 hPa 0,0 l/m 18,9 km/h (3 Bft) W-NW22.5 300 0 min 0 min 7,0 C 6,1 C
29.09.2012 18:44 11,2 C 73 % 1016 hPa 0,0 l/m 7,0 km/h (2 Bft) W-NW22.5 295 0 min 0 min 6,5 C 10,8 C
29.09.2012 18:59 10,2 C 75 % 1016 hPa 0,0 l/m 0,2 km/h (0 Bft) W 280 0 min 0 min 6,0 C 10,2 C
29.09.2012 19:15 9,4 C 77 % 1016 hPa 0,0 l/m 0,0 km/h (0 Bft) W 275 0 min 0 min 5,6 C 9,4 C
29.09.2012 19:30 8,7 C 78 % 1016 hPa 0,0 l/m 0,0 km/h (0 Bft) W 275 0 min 0 min 5,1 C 8,7 C
29.09.2012 19:44 8,4 C 80 % 1017 hPa 0,0 l/m 0,0 km/h (0 Bft) W 275 0 min 0 min 5,2 C 8,4 C
29.09.2012 19:59 7,9 C 81 % 1017 hPa 0,0 l/m 0,0 km/h (0 Bft) W 275 0 min 0 min 4,8 C 7,9 C
29.09.2012 20:14 7,2 C 81 % 1017 hPa 0,0 l/m 0,0 km/h (0 Bft) W 275 0 min 0 min 4,2 C 7,2 C
29.09.2012 20:29 6,7 C 83 % 1017 hPa 0,0 l/m 0,0 km/h (0 Bft) W 275 0 min 0 min 4,0 C 6,7 C
29.09.2012 20:45 6,3 C 84 % 1017 hPa 0,0 l/m 0,0 km/h (0 Bft) W 275 0 min 0 min 3,8 C 6,3 C
29.09.2012 21:00 5,8 C 85 % 1018 hPa 0,0 l/m 0,0 km/h (0 Bft) W 275 0 min 0 min 3,5 C 5,8 C
29.09.2012 21:14 5,3 C 85 % 1018 hPa 0,0 l/m 0,0 km/h (0 Bft) W 275 0 min 0 min 3,0 C 5,3 C
29.09.2012 21:29 4,6 C 86 % 1018 hPa 0,0 l/m 0,0 km/h (0 Bft) W 275 0 min 0 min 2,5 C 4,6 C
29.09.2012 21:44 4,2 C 88 % 1018 hPa 0,0 l/m 0,0 km/h (0 Bft) W 275 0 min 0 min 2,4 C 4,2 C
29.09.2012 21:59 3,9 C 88 % 1018 hPa 0,0 l/m 0,0 km/h (0 Bft) W 275 0 min 0 min 2,1 C 3,9 C
29.09.2012 22:15 3,6 C 88 % 1019 hPa 0,0 l/m 0,0 km/h (0 Bft) W 275 0 min 0 min 1,8 C 3,6 C
29.09.2012 22:30 3,1 C 89 % 1019 hPa 0,0 l/m 0,0 km/h (0 Bft) W 275 0 min 0 min 1,5 C 3,1 C
29.09.2012 22:44 2,9 C 90 % 1019 hPa 0,0 l/m 0,0 km/h (0 Bft) W 275 0 min 0 min 1,4 C 2,9 C
29.09.2012 22:59 2,6 C 90 % 1019 hPa 0,0 l/m 0,0 km/h (0 Bft) W 275 0 min 0 min 1,1 C 2,6 C
29.09.2012 23:14 2,4 C 90 % 1019 hPa 0,0 l/m 0,0 km/h (0 Bft) W 275 0 min 0 min 0,9 C 2,4 C
29.09.2012 23:29 2,1 C 90 % 1019 hPa 0,0 l/m 0,0 km/h (0 Bft) W 275 0 min 0 min 0,6 C 2,1 C
29.09.2012 23:45 2,0 C 91 % 1019 hPa 0,0 l/m 0,0 km/h (0 Bft) W 275 0 min 0 min 0,7 C 2,0 C
29.09.2012 23:59 1,9 C 91 % 1019 hPa 0,0 l/m 0,0 km/h (0 Bft) W 275 0 min 0 min 0,6 C 1,9 C
_ Min-Zeit 23:59 17:14 00:53 - 19:15 - - - - 23:59 03:24
Minimum _ 1,9 C 68 % 1014 hPa - 0,0 km/h (0 Bft) - - - - 0,6 C -1,3 C
_ Max-Zeit 16:59 06:24 22:15 00:08 16:59 - - 00:08 00:08 12:14 18:44
Maximum _ 14,0 C 97 % 1019 hPa 0,0 l/m 27,6 km/h
W (4 Bft)
- - 0 min 0 min 10,3 C 10,8 C
Durchschnitt _ 8,5 C 87 % 1016 hPa #0,0 l/m 13,7 km/h (3 Bft) W-SW - #0 min. #0 min. 6,4 C 4,0 C